sensor_id;sensor_type;location;lat;lon;timestamp;P1;durP1;ratioP1;P2;durP2;ratioP2
62179;SDS011;48172;53.374;10.722;2022-12-18T00:01:19;8.70;;;7.60;;
62179;SDS011;48172;53.374;10.722;2022-12-18T00:03:46;8.65;;;7.78;;
62179;SDS011;48172;53.374;10.722;2022-12-18T00:06:13;8.50;;;7.60;;
62179;SDS011;48172;53.374;10.722;2022-12-18T00:08:41;9.35;;;7.63;;
62179;SDS011;48172;53.374;10.722;2022-12-18T00:11:10;8.73;;;7.78;;
62179;SDS011;48172;53.374;10.722;2022-12-18T00:13:38;9.15;;;7.65;;
62179;SDS011;48172;53.374;10.722;2022-12-18T00:16:06;9.32;;;7.53;;
62179;SDS011;48172;53.374;10.722;2022-12-18T00:18:34;9.32;;;7.90;;
62179;SDS011;48172;53.374;10.722;2022-12-18T00:21:02;8.00;;;7.20;;
62179;SDS011;48172;53.374;10.722;2022-12-18T00:23:31;8.38;;;7.55;;
62179;SDS011;48172;53.374;10.722;2022-12-18T00:25:59;8.85;;;7.47;;
62179;SDS011;48172;53.374;10.722;2022-12-18T00:28:26;7.82;;;7.00;;
62179;SDS011;48172;53.374;10.722;2022-12-18T00:31:00;8.05;;;7.25;;
62179;SDS011;48172;53.374;10.722;2022-12-18T00:33:30;9.52;;;8.25;;
62179;SDS011;48172;53.374;10.722;2022-12-18T00:36:01;7.70;;;6.88;;
62179;SDS011;48172;53.374;10.722;2022-12-18T00:38:28;8.05;;;7.25;;
62179;SDS011;48172;53.374;10.722;2022-12-18T00:40:55;9.60;;;8.60;;
62179;SDS011;48172;53.374;10.722;2022-12-18T00:43:21;10.07;;;8.00;;
62179;SDS011;48172;53.374;10.722;2022-12-18T00:45:48;8.73;;;7.50;;
62179;SDS011;48172;53.374;10.722;2022-12-18T00:48:15;8.80;;;7.30;;
62179;SDS011;48172;53.374;10.722;2022-12-18T00:50:41;8.63;;;7.72;;
62179;SDS011;48172;53.374;10.722;2022-12-18T00:53:08;8.77;;;7.63;;
62179;SDS011;48172;53.374;10.722;2022-12-18T00:55:38;9.55;;;8.35;;
62179;SDS011;48172;53.374;10.722;2022-12-18T00:58:05;8.30;;;7.43;;
62179;SDS011;48172;53.374;10.722;2022-12-18T01:00:32;8.68;;;7.80;;
62179;SDS011;48172;53.374;10.722;2022-12-18T01:02:59;9.05;;;8.15;;
62179;SDS011;48172;53.374;10.722;2022-12-18T01:05:26;8.57;;;7.68;;
62179;SDS011;48172;53.374;10.722;2022-12-18T01:07:53;9.60;;;8.18;;
62179;SDS011;48172;53.374;10.722;2022-12-18T01:10:20;9.65;;;8.10;;
62179;SDS011;48172;53.374;10.722;2022-12-18T01:12:47;8.60;;;7.63;;
62179;SDS011;48172;53.374;10.722;2022-12-18T01:15:14;7.82;;;7.03;;
62179;SDS011;48172;53.374;10.722;2022-12-18T01:17:41;9.70;;;8.23;;
62179;SDS011;48172;53.374;10.722;2022-12-18T01:20:08;9.40;;;8.30;;
62179;SDS011;48172;53.374;10.722;2022-12-18T01:22:37;8.63;;;7.60;;
62179;SDS011;48172;53.374;10.722;2022-12-18T01:25:04;8.93;;;8.00;;
62179;SDS011;48172;53.374;10.722;2022-12-18T01:27:32;9.27;;;8.13;;
62179;SDS011;48172;53.374;10.722;2022-12-18T01:29:59;8.60;;;7.53;;
62179;SDS011;48172;53.374;10.722;2022-12-18T01:32:26;8.65;;;7.45;;
62179;SDS011;48172;53.374;10.722;2022-12-18T01:34:52;9.23;;;8.32;;
62179;SDS011;48172;53.374;10.722;2022-12-18T01:37:18;8.48;;;7.30;;
62179;SDS011;48172;53.374;10.722;2022-12-18T01:39:45;8.60;;;7.70;;
62179;SDS011;48172;53.374;10.722;2022-12-18T01:42:12;8.50;;;7.47;;
62179;SDS011;48172;53.374;10.722;2022-12-18T01:53:06;9.65;;;8.32;;
62179;SDS011;48172;53.374;10.722;2022-12-18T01:55:39;9.10;;;7.88;;
62179;SDS011;48172;53.374;10.722;2022-12-18T01:58:15;9.35;;;7.95;;
62179;SDS011;48172;53.374;10.722;2022-12-18T02:00:43;8.65;;;7.75;;
62179;SDS011;48172;53.374;10.722;2022-12-18T02:03:10;8.80;;;7.90;;
62179;SDS011;48172;53.374;10.722;2022-12-18T02:08:36;9.05;;;8.05;;
62179;SDS011;48172;53.374;10.722;2022-12-18T02:14:28;8.38;;;7.55;;
62179;SDS011;48172;53.374;10.722;2022-12-18T02:17:10;9.38;;;8.00;;
62179;SDS011;48172;53.374;10.722;2022-12-18T02:25:23;9.50;;;8.02;;
62179;SDS011;48172;53.374;10.722;2022-12-18T02:27:45;8.60;;;7.22;;
62179;SDS011;48172;53.374;10.722;2022-12-18T02:30:13;10.27;;;8.93;;
62179;SDS011;48172;53.374;10.722;2022-12-18T02:32:41;8.80;;;7.88;;
62179;SDS011;48172;53.374;10.722;2022-12-18T02:35:12;9.02;;;7.95;;
62179;SDS011;48172;53.374;10.722;2022-12-18T02:37:41;9.13;;;7.75;;
62179;SDS011;48172;53.374;10.722;2022-12-18T02:40:11;11.15;;;7.93;;
62179;SDS011;48172;53.374;10.722;2022-12-18T02:42:39;9.98;;;8.00;;
62179;SDS011;48172;53.374;10.722;2022-12-18T02:45:06;9.25;;;8.18;;
62179;SDS011;48172;53.374;10.722;2022-12-18T02:47:35;8.52;;;7.50;;
62179;SDS011;48172;53.374;10.722;2022-12-18T02:52:49;10.02;;;8.55;;
62179;SDS011;48172;53.374;10.722;2022-12-18T02:55:26;9.65;;;8.52;;
62179;SDS011;48172;53.374;10.722;2022-12-18T03:03:35;9.55;;;8.32;;
62179;SDS011;48172;53.374;10.722;2022-12-18T03:06:32;9.60;;;8.20;;
62179;SDS011;48172;53.374;10.722;2022-12-18T03:09:11;8.93;;;7.47;;
62179;SDS011;48172;53.374;10.722;2022-12-18T03:11:43;9.50;;;7.88;;
62179;SDS011;48172;53.374;10.722;2022-12-18T03:14:33;10.75;;;8.45;;
62179;SDS011;48172;53.374;10.722;2022-12-18T03:17:02;9.27;;;8.00;;
62179;SDS011;48172;53.374;10.722;2022-12-18T03:19:32;9.98;;;8.27;;
62179;SDS011;48172;53.374;10.722;2022-12-18T03:22:00;9.70;;;8.05;;
62179;SDS011;48172;53.374;10.722;2022-12-18T03:24:29;9.55;;;8.32;;
62179;SDS011;48172;53.374;10.722;2022-12-18T03:26:59;9.38;;;8.27;;
62179;SDS011;48172;53.374;10.722;2022-12-18T03:29:31;9.80;;;8.40;;
62179;SDS011;48172;53.374;10.722;2022-12-18T03:32:04;9.55;;;7.95;;
62179;SDS011;48172;53.374;10.722;2022-12-18T03:34:34;10.65;;;9.10;;
62179;SDS011;48172;53.374;10.722;2022-12-18T03:37:03;9.25;;;7.88;;
62179;SDS011;48172;53.374;10.722;2022-12-18T03:39:32;10.85;;;8.27;;
62179;SDS011;48172;53.374;10.722;2022-12-18T03:42:07;9.55;;;8.27;;
62179;SDS011;48172;53.374;10.722;2022-12-18T03:47:19;8.90;;;7.95;;
62179;SDS011;48172;53.374;10.722;2022-12-18T03:50:13;8.60;;;7.60;;
62179;SDS011;48172;53.374;10.722;2022-12-18T03:55:14;9.68;;;7.88;;
62179;SDS011;48172;53.374;10.722;2022-12-18T03:57:41;10.98;;;8.57;;
62179;SDS011;48172;53.374;10.722;2022-12-18T04:00:11;10.35;;;8.55;;
62179;SDS011;48172;53.374;10.722;2022-12-18T04:02:40;10.95;;;9.10;;
62179;SDS011;48172;53.374;10.722;2022-12-18T04:05:10;9.25;;;7.93;;
62179;SDS011;48172;53.374;10.722;2022-12-18T04:07:39;11.07;;;8.55;;
62179;SDS011;48172;53.374;10.722;2022-12-18T04:10:06;9.48;;;7.85;;
62179;SDS011;48172;53.374;10.722;2022-12-18T04:12:38;10.15;;;8.13;;
62179;SDS011;48172;53.374;10.722;2022-12-18T04:15:04;9.40;;;7.90;;
62179;SDS011;48172;53.374;10.722;2022-12-18T04:17:31;9.93;;;8.15;;
62179;SDS011;48172;53.374;10.722;2022-12-18T04:19:58;9.88;;;8.50;;
62179;SDS011;48172;53.374;10.722;2022-12-18T04:22:24;10.18;;;8.30;;
62179;SDS011;48172;53.374;10.722;2022-12-18T04:24:51;10.60;;;8.02;;
62179;SDS011;48172;53.374;10.722;2022-12-18T04:27:18;10.38;;;7.97;;
62179;SDS011;48172;53.374;10.722;2022-12-18T04:29:44;10.70;;;8.68;;
62179;SDS011;48172;53.374;10.722;2022-12-18T04:32:11;9.18;;;8.13;;
62179;SDS011;48172;53.374;10.722;2022-12-18T04:34:37;10.50;;;8.40;;
62179;SDS011;48172;53.374;10.722;2022-12-18T04:37:04;9.82;;;8.07;;
62179;SDS011;48172;53.374;10.722;2022-12-18T04:39:30;10.35;;;7.85;;
62179;SDS011;48172;53.374;10.722;2022-12-18T04:42:00;11.07;;;8.07;;
62179;SDS011;48172;53.374;10.722;2022-12-18T04:44:26;10.13;;;8.02;;
62179;SDS011;48172;53.374;10.722;2022-12-18T04:46:53;9.38;;;7.88;;
62179;SDS011;48172;53.374;10.722;2022-12-18T04:49:19;10.60;;;7.90;;
62179;SDS011;48172;53.374;10.722;2022-12-18T04:51:46;9.48;;;7.68;;
62179;SDS011;48172;53.374;10.722;2022-12-18T04:54:12;10.27;;;7.90;;
62179;SDS011;48172;53.374;10.722;2022-12-18T04:56:39;11.15;;;8.82;;
62179;SDS011;48172;53.374;10.722;2022-12-18T04:59:06;10.05;;;7.82;;
62179;SDS011;48172;53.374;10.722;2022-12-18T05:01:32;10.63;;;8.20;;
62179;SDS011;48172;53.374;10.722;2022-12-18T05:04:02;9.50;;;7.85;;
62179;SDS011;48172;53.374;10.722;2022-12-18T05:06:29;10.77;;;8.25;;
62179;SDS011;48172;53.374;10.722;2022-12-18T05:08:55;9.43;;;7.60;;
62179;SDS011;48172;53.374;10.722;2022-12-18T05:11:22;10.98;;;8.25;;
62179;SDS011;48172;53.374;10.722;2022-12-18T05:13:48;10.70;;;7.90;;
62179;SDS011;48172;53.374;10.722;2022-12-18T05:16:15;10.50;;;8.15;;
62179;SDS011;48172;53.374;10.722;2022-12-18T05:18:42;10.48;;;8.00;;
62179;SDS011;48172;53.374;10.722;2022-12-18T05:21:08;11.00;;;7.75;;
62179;SDS011;48172;53.374;10.722;2022-12-18T05:23:35;8.93;;;7.72;;
62179;SDS011;48172;53.374;10.722;2022-12-18T05:26:04;9.50;;;8.00;;
62179;SDS011;48172;53.374;10.722;2022-12-18T05:28:32;9.50;;;8.15;;
62179;SDS011;48172;53.374;10.722;2022-12-18T05:30:59;10.32;;;7.93;;
62179;SDS011;48172;53.374;10.722;2022-12-18T05:33:29;10.07;;;8.07;;
62179;SDS011;48172;53.374;10.722;2022-12-18T05:35:59;11.30;;;7.78;;
62179;SDS011;48172;53.374;10.722;2022-12-18T05:38:28;10.52;;;8.38;;
62179;SDS011;48172;53.374;10.722;2022-12-18T05:40:56;10.27;;;8.23;;
62179;SDS011;48172;53.374;10.722;2022-12-18T05:43:23;10.18;;;8.02;;
62179;SDS011;48172;53.374;10.722;2022-12-18T05:45:50;12.18;;;8.60;;
62179;SDS011;48172;53.374;10.722;2022-12-18T05:48:18;9.95;;;7.95;;
62179;SDS011;48172;53.374;10.722;2022-12-18T05:50:45;10.27;;;7.93;;
62179;SDS011;48172;53.374;10.722;2022-12-18T05:53:14;8.45;;;7.03;;
62179;SDS011;48172;53.374;10.722;2022-12-18T05:55:43;9.75;;;7.50;;
62179;SDS011;48172;53.374;10.722;2022-12-18T05:58:10;9.90;;;7.70;;
62179;SDS011;48172;53.374;10.722;2022-12-18T06:00:39;10.13;;;8.05;;
62179;SDS011;48172;53.374;10.722;2022-12-18T06:03:08;9.00;;;7.45;;
62179;SDS011;48172;53.374;10.722;2022-12-18T06:05:36;9.60;;;6.85;;
62179;SDS011;48172;53.374;10.722;2022-12-18T06:08:04;9.68;;;7.03;;
62179;SDS011;48172;53.374;10.722;2022-12-18T06:10:31;10.70;;;7.63;;
62179;SDS011;48172;53.374;10.722;2022-12-18T06:12:58;8.10;;;7.20;;
62179;SDS011;48172;53.374;10.722;2022-12-18T06:15:25;8.98;;;7.13;;
62179;SDS011;48172;53.374;10.722;2022-12-18T06:17:51;9.55;;;7.70;;
62179;SDS011;48172;53.374;10.722;2022-12-18T06:20:18;9.18;;;7.07;;
62179;SDS011;48172;53.374;10.722;2022-12-18T06:22:45;8.63;;;6.60;;
62179;SDS011;48172;53.374;10.722;2022-12-18T06:25:11;9.40;;;6.65;;
62179;SDS011;48172;53.374;10.722;2022-12-18T06:27:38;8.55;;;6.82;;
62179;SDS011;48172;53.374;10.722;2022-12-18T06:30:05;9.02;;;6.78;;
62179;SDS011;48172;53.374;10.722;2022-12-18T06:32:32;9.48;;;6.68;;
62179;SDS011;48172;53.374;10.722;2022-12-18T06:34:58;8.95;;;7.10;;
62179;SDS011;48172;53.374;10.722;2022-12-18T06:37:25;9.65;;;7.13;;
62179;SDS011;48172;53.374;10.722;2022-12-18T06:39:53;9.20;;;6.72;;
62179;SDS011;48172;53.374;10.722;2022-12-18T06:42:19;7.55;;;6.38;;
62179;SDS011;48172;53.374;10.722;2022-12-18T06:44:49;7.15;;;6.07;;
62179;SDS011;48172;53.374;10.722;2022-12-18T06:47:16;7.75;;;6.43;;
62179;SDS011;48172;53.374;10.722;2022-12-18T06:49:42;7.93;;;6.50;;
62179;SDS011;48172;53.374;10.722;2022-12-18T06:52:09;8.15;;;6.40;;
62179;SDS011;48172;53.374;10.722;2022-12-18T06:54:35;7.88;;;6.63;;
62179;SDS011;48172;53.374;10.722;2022-12-18T06:57:02;8.32;;;6.85;;
62179;SDS011;48172;53.374;10.722;2022-12-18T06:59:29;6.47;;;5.78;;
62179;SDS011;48172;53.374;10.722;2022-12-18T07:01:55;7.97;;;5.75;;
62179;SDS011;48172;53.374;10.722;2022-12-18T07:04:22;7.80;;;6.13;;
62179;SDS011;48172;53.374;10.722;2022-12-18T07:06:53;7.53;;;6.22;;
62179;SDS011;48172;53.374;10.722;2022-12-18T07:09:19;7.55;;;6.35;;
62179;SDS011;48172;53.374;10.722;2022-12-18T07:11:46;7.82;;;6.32;;
62179;SDS011;48172;53.374;10.722;2022-12-18T07:14:12;7.72;;;6.60;;
62179;SDS011;48172;53.374;10.722;2022-12-18T07:16:39;7.03;;;5.70;;
62179;SDS011;48172;53.374;10.722;2022-12-18T07:19:06;8.40;;;6.50;;
62179;SDS011;48172;53.374;10.722;2022-12-18T07:21:33;7.20;;;6.20;;
62179;SDS011;48172;53.374;10.722;2022-12-18T07:24:00;6.78;;;6.03;;
62179;SDS011;48172;53.374;10.722;2022-12-18T07:26:26;7.30;;;6.32;;
62179;SDS011;48172;53.374;10.722;2022-12-18T07:28:56;7.57;;;6.25;;
62179;SDS011;48172;53.374;10.722;2022-12-18T07:31:23;7.32;;;6.18;;
62179;SDS011;48172;53.374;10.722;2022-12-18T07:33:51;7.60;;;6.32;;
62179;SDS011;48172;53.374;10.722;2022-12-18T07:36:18;7.13;;;5.85;;
62179;SDS011;48172;53.374;10.722;2022-12-18T07:38:46;6.57;;;5.70;;
62179;SDS011;48172;53.374;10.722;2022-12-18T07:41:14;7.60;;;6.07;;
62179;SDS011;48172;53.374;10.722;2022-12-18T07:43:41;6.50;;;5.55;;
62179;SDS011;48172;53.374;10.722;2022-12-18T07:46:09;6.88;;;5.78;;
62179;SDS011;48172;53.374;10.722;2022-12-18T07:48:38;7.50;;;6.03;;
62179;SDS011;48172;53.374;10.722;2022-12-18T07:51:05;7.22;;;6.35;;
62179;SDS011;48172;53.374;10.722;2022-12-18T07:53:33;6.90;;;5.63;;
62179;SDS011;48172;53.374;10.722;2022-12-18T07:56:03;7.20;;;6.20;;
62179;SDS011;48172;53.374;10.722;2022-12-18T07:58:52;6.15;;;5.53;;
62179;SDS011;48172;53.374;10.722;2022-12-18T08:01:19;6.97;;;6.20;;
62179;SDS011;48172;53.374;10.722;2022-12-18T08:03:46;6.25;;;5.65;;
62179;SDS011;48172;53.374;10.722;2022-12-18T08:06:13;6.75;;;6.10;;
62179;SDS011;48172;53.374;10.722;2022-12-18T08:08:40;6.28;;;5.68;;
62179;SDS011;48172;53.374;10.722;2022-12-18T08:11:08;7.00;;;5.72;;
62179;SDS011;48172;53.374;10.722;2022-12-18T08:13:34;6.85;;;5.95;;
62179;SDS011;48172;53.374;10.722;2022-12-18T08:16:03;6.32;;;5.63;;
62179;SDS011;48172;53.374;10.722;2022-12-18T08:18:32;6.78;;;5.57;;
62179;SDS011;48172;53.374;10.722;2022-12-18T08:23:39;6.53;;;5.55;;
62179;SDS011;48172;53.374;10.722;2022-12-18T08:26:09;6.25;;;5.53;;
62179;SDS011;48172;53.374;10.722;2022-12-18T08:28:39;6.30;;;5.68;;
62179;SDS011;48172;53.374;10.722;2022-12-18T08:31:06;6.63;;;5.93;;
62179;SDS011;48172;53.374;10.722;2022-12-18T08:33:34;6.10;;;5.25;;
62179;SDS011;48172;53.374;10.722;2022-12-18T08:36:03;9.13;;;6.05;;
62179;SDS011;48172;53.374;10.722;2022-12-18T08:38:31;6.40;;;5.80;;
62179;SDS011;48172;53.374;10.722;2022-12-18T08:41:02;6.28;;;5.68;;
62179;SDS011;48172;53.374;10.722;2022-12-18T08:43:31;6.53;;;5.53;;
62179;SDS011;48172;53.374;10.722;2022-12-18T08:46:16;5.88;;;5.03;;
62179;SDS011;48172;53.374;10.722;2022-12-18T08:48:44;7.18;;;5.80;;
62179;SDS011;48172;53.374;10.722;2022-12-18T08:51:11;7.90;;;5.97;;
62179;SDS011;48172;53.374;10.722;2022-12-18T08:53:38;7.28;;;6.15;;
62179;SDS011;48172;53.374;10.722;2022-12-18T08:56:05;6.55;;;5.82;;
62179;SDS011;48172;53.374;10.722;2022-12-18T08:58:32;5.60;;;5.00;;
62179;SDS011;48172;53.374;10.722;2022-12-18T09:01:02;6.63;;;5.57;;
62179;SDS011;48172;53.374;10.722;2022-12-18T09:03:30;7.40;;;5.97;;
62179;SDS011;48172;53.374;10.722;2022-12-18T09:05:57;6.50;;;5.68;;
62179;SDS011;48172;53.374;10.722;2022-12-18T09:08:23;6.68;;;5.97;;
62179;SDS011;48172;53.374;10.722;2022-12-18T09:10:50;5.55;;;4.97;;
62179;SDS011;48172;53.374;10.722;2022-12-18T09:13:39;6.47;;;5.78;;
62179;SDS011;48172;53.374;10.722;2022-12-18T09:16:04;6.45;;;5.75;;
62179;SDS011;48172;53.374;10.722;2022-12-18T09:18:31;6.80;;;5.20;;
62179;SDS011;48172;53.374;10.722;2022-12-18T09:20:58;6.68;;;5.35;;
62179;SDS011;48172;53.374;10.722;2022-12-18T09:23:24;6.60;;;5.90;;
62179;SDS011;48172;53.374;10.722;2022-12-18T09:25:51;6.18;;;5.15;;
62179;SDS011;48172;53.374;10.722;2022-12-18T09:28:18;7.47;;;5.65;;
62179;SDS011;48172;53.374;10.722;2022-12-18T09:30:46;6.05;;;5.35;;
62179;SDS011;48172;53.374;10.722;2022-12-18T09:33:15;6.97;;;5.30;;
62179;SDS011;48172;53.374;10.722;2022-12-18T09:35:43;6.72;;;5.70;;
62179;SDS011;48172;53.374;10.722;2022-12-18T09:38:11;6.10;;;4.90;;
62179;SDS011;48172;53.374;10.722;2022-12-18T09:40:43;5.78;;;4.93;;
62179;SDS011;48172;53.374;10.722;2022-12-18T09:43:14;5.97;;;5.05;;
62179;SDS011;48172;53.374;10.722;2022-12-18T09:45:46;7.68;;;5.93;;
62179;SDS011;48172;53.374;10.722;2022-12-18T09:51:24;5.40;;;4.90;;
62179;SDS011;48172;53.374;10.722;2022-12-18T09:53:59;6.18;;;5.10;;
62179;SDS011;48172;53.374;10.722;2022-12-18T09:56:31;7.00;;;5.55;;
62179;SDS011;48172;53.374;10.722;2022-12-18T09:59:03;6.35;;;5.25;;
62179;SDS011;48172;53.374;10.722;2022-12-18T10:01:31;7.18;;;5.40;;
62179;SDS011;48172;53.374;10.722;2022-12-18T10:04:08;6.40;;;5.53;;
62179;SDS011;48172;53.374;10.722;2022-12-18T10:06:37;6.28;;;5.28;;
62179;SDS011;48172;53.374;10.722;2022-12-18T10:09:24;5.55;;;4.88;;
62179;SDS011;48172;53.374;10.722;2022-12-18T10:20:36;5.18;;;4.63;;
62179;SDS011;48172;53.374;10.722;2022-12-18T10:26:00;6.45;;;5.03;;
62179;SDS011;48172;53.374;10.722;2022-12-18T10:28:30;6.13;;;5.15;;
62179;SDS011;48172;53.374;10.722;2022-12-18T10:30:58;6.80;;;5.53;;
62179;SDS011;48172;53.374;10.722;2022-12-18T10:33:28;5.70;;;4.70;;
62179;SDS011;48172;53.374;10.722;2022-12-18T10:35:56;5.85;;;5.18;;
62179;SDS011;48172;53.374;10.722;2022-12-18T10:38:29;5.78;;;5.05;;
62179;SDS011;48172;53.374;10.722;2022-12-18T10:41:02;6.47;;;5.18;;
62179;SDS011;48172;53.374;10.722;2022-12-18T10:43:43;4.97;;;4.47;;
62179;SDS011;48172;53.374;10.722;2022-12-18T10:51:26;6.50;;;5.15;;
62179;SDS011;48172;53.374;10.722;2022-12-18T10:54:16;6.38;;;5.22;;
62179;SDS011;48172;53.374;10.722;2022-12-18T10:56:45;5.78;;;4.78;;
62179;SDS011;48172;53.374;10.722;2022-12-18T10:59:15;5.60;;;5.00;;
62179;SDS011;48172;53.374;10.722;2022-12-18T11:01:50;6.18;;;5.30;;
62179;SDS011;48172;53.374;10.722;2022-12-18T11:04:28;5.65;;;4.95;;
62179;SDS011;48172;53.374;10.722;2022-12-18T11:09:28;5.70;;;4.68;;
62179;SDS011;48172;53.374;10.722;2022-12-18T11:12:03;5.37;;;4.87;;
62179;SDS011;48172;53.374;10.722;2022-12-18T11:17:19;5.35;;;4.68;;
62179;SDS011;48172;53.374;10.722;2022-12-18T11:19:57;5.95;;;4.70;;
62179;SDS011;48172;53.374;10.722;2022-12-18T11:27:55;6.28;;;5.25;;
62179;SDS011;48172;53.374;10.722;2022-12-18T11:30:30;5.88;;;5.15;;
62179;SDS011;48172;53.374;10.722;2022-12-18T11:33:05;6.55;;;5.32;;
62179;SDS011;48172;53.374;10.722;2022-12-18T11:43:25;5.40;;;4.78;;
62179;SDS011;48172;53.374;10.722;2022-12-18T11:46:05;5.85;;;4.93;;
62179;SDS011;48172;53.374;10.722;2022-12-18T11:51:29;5.30;;;4.80;;
62179;SDS011;48172;53.374;10.722;2022-12-18T11:54:10;5.93;;;5.30;;
62179;SDS011;48172;53.374;10.722;2022-12-18T12:03:15;6.28;;;4.75;;
62179;SDS011;48172;53.374;10.722;2022-12-18T12:08:02;6.07;;;4.50;;
62179;SDS011;48172;53.374;10.722;2022-12-18T12:10:54;5.53;;;4.47;;
62179;SDS011;48172;53.374;10.722;2022-12-18T12:31:59;5.55;;;4.97;;
62179;SDS011;48172;53.374;10.722;2022-12-18T12:40:44;5.65;;;4.93;;
62179;SDS011;48172;53.374;10.722;2022-12-18T12:43:35;5.95;;;5.15;;
62179;SDS011;48172;53.374;10.722;2022-12-18T12:46:17;5.65;;;4.57;;
62179;SDS011;48172;53.374;10.722;2022-12-18T12:48:54;5.88;;;5.00;;
62179;SDS011;48172;53.374;10.722;2022-12-18T12:51:34;5.95;;;4.82;;
62179;SDS011;48172;53.374;10.722;2022-12-18T12:54:04;5.35;;;4.78;;
62179;SDS011;48172;53.374;10.722;2022-12-18T12:56:37;5.65;;;4.93;;
62179;SDS011;48172;53.374;10.722;2022-12-18T12:59:13;5.97;;;5.38;;
62179;SDS011;48172;53.374;10.722;2022-12-18T13:04:47;5.60;;;5.00;;
62179;SDS011;48172;53.374;10.722;2022-12-18T13:07:20;6.65;;;5.25;;
62179;SDS011;48172;53.374;10.722;2022-12-18T13:15:40;5.28;;;4.78;;
62179;SDS011;48172;53.374;10.722;2022-12-18T13:18:13;5.35;;;4.85;;
62179;SDS011;48172;53.374;10.722;2022-12-18T13:20:51;5.57;;;4.90;;
62179;SDS011;48172;53.374;10.722;2022-12-18T13:23:34;6.07;;;5.03;;
62179;SDS011;48172;53.374;10.722;2022-12-18T13:26:27;5.70;;;4.88;;
62179;SDS011;48172;53.374;10.722;2022-12-18T13:28:55;5.38;;;4.68;;
62179;SDS011;48172;53.374;10.722;2022-12-18T13:36:53;7.25;;;5.30;;
62179;SDS011;48172;53.374;10.722;2022-12-18T13:39:22;6.07;;;4.93;;
62179;SDS011;48172;53.374;10.722;2022-12-18T13:44:41;6.15;;;5.38;;
62179;SDS011;48172;53.374;10.722;2022-12-18T13:50:17;5.88;;;5.00;;
62179;SDS011;48172;53.374;10.722;2022-12-18T13:53:00;6.50;;;5.30;;
62179;SDS011;48172;53.374;10.722;2022-12-18T13:55:27;6.00;;;5.32;;
62179;SDS011;48172;53.374;10.722;2022-12-18T13:58:03;5.82;;;4.95;;
62179;SDS011;48172;53.374;10.722;2022-12-18T14:00:31;6.05;;;5.35;;
62179;SDS011;48172;53.374;10.722;2022-12-18T14:02:58;6.20;;;5.22;;
62179;SDS011;48172;53.374;10.722;2022-12-18T14:05:27;6.38;;;5.50;;
62179;SDS011;48172;53.374;10.722;2022-12-18T14:08:10;6.18;;;4.80;;
62179;SDS011;48172;53.374;10.722;2022-12-18T14:10:40;6.68;;;5.00;;
62179;SDS011;48172;53.374;10.722;2022-12-18T14:13:19;6.38;;;4.88;;
62179;SDS011;48172;53.374;10.722;2022-12-18T14:15:54;5.78;;;4.82;;
62179;SDS011;48172;53.374;10.722;2022-12-18T14:18:33;6.40;;;5.10;;
62179;SDS011;48172;53.374;10.722;2022-12-18T14:21:01;6.20;;;5.22;;
62179;SDS011;48172;53.374;10.722;2022-12-18T14:23:31;6.32;;;5.40;;
62179;SDS011;48172;53.374;10.722;2022-12-18T14:28:56;6.82;;;5.60;;
62179;SDS011;48172;53.374;10.722;2022-12-18T14:31:30;5.57;;;4.60;;
62179;SDS011;48172;53.374;10.722;2022-12-18T14:33:57;6.13;;;4.93;;
62179;SDS011;48172;53.374;10.722;2022-12-18T14:36:25;6.68;;;4.65;;
62179;SDS011;48172;53.374;10.722;2022-12-18T14:38:57;6.63;;;5.57;;
62179;SDS011;48172;53.374;10.722;2022-12-18T14:41:25;7.18;;;5.43;;
62179;SDS011;48172;53.374;10.722;2022-12-18T14:43:53;6.57;;;5.80;;
62179;SDS011;48172;53.374;10.722;2022-12-18T14:46:28;6.70;;;5.32;;
62179;SDS011;48172;53.374;10.722;2022-12-18T14:51:56;6.18;;;4.78;;
62179;SDS011;48172;53.374;10.722;2022-12-18T14:54:28;7.38;;;5.45;;
62179;SDS011;48172;53.374;10.722;2022-12-18T14:57:41;6.85;;;5.50;;
62179;SDS011;48172;53.374;10.722;2022-12-18T15:00:03;7.03;;;5.45;;
62179;SDS011;48172;53.374;10.722;2022-12-18T15:02:32;7.03;;;5.72;;
62179;SDS011;48172;53.374;10.722;2022-12-18T15:05:14;7.25;;;5.57;;
62179;SDS011;48172;53.374;10.722;2022-12-18T15:07:53;6.30;;;5.32;;
62179;SDS011;48172;53.374;10.722;2022-12-18T15:10:22;6.03;;;4.97;;
62179;SDS011;48172;53.374;10.722;2022-12-18T15:20:43;6.90;;;5.50;;
62179;SDS011;48172;53.374;10.722;2022-12-18T15:23:15;6.30;;;5.57;;
62179;SDS011;48172;53.374;10.722;2022-12-18T15:25:43;6.40;;;5.50;;
62179;SDS011;48172;53.374;10.722;2022-12-18T15:28:18;9.45;;;5.45;;
62179;SDS011;48172;53.374;10.722;2022-12-18T15:31:50;7.22;;;5.80;;
62179;SDS011;48172;53.374;10.722;2022-12-18T15:36:18;6.70;;;5.65;;
62179;SDS011;48172;53.374;10.722;2022-12-18T15:38:52;7.13;;;5.75;;
62179;SDS011;48172;53.374;10.722;2022-12-18T15:41:34;6.70;;;5.43;;
62179;SDS011;48172;53.374;10.722;2022-12-18T15:44:02;8.35;;;5.65;;
62179;SDS011;48172;53.374;10.722;2022-12-18T15:46:47;6.25;;;5.57;;
62179;SDS011;48172;53.374;10.722;2022-12-18T15:49:13;7.80;;;5.53;;
62179;SDS011;48172;53.374;10.722;2022-12-18T15:51:40;6.25;;;5.10;;
62179;SDS011;48172;53.374;10.722;2022-12-18T15:54:09;6.30;;;5.70;;
62179;SDS011;48172;53.374;10.722;2022-12-18T15:56:39;6.22;;;5.20;;
62179;SDS011;48172;53.374;10.722;2022-12-18T15:59:24;7.32;;;5.50;;
62179;SDS011;48172;53.374;10.722;2022-12-18T16:01:51;6.32;;;5.13;;
62179;SDS011;48172;53.374;10.722;2022-12-18T16:04:21;5.13;;;4.63;;
62179;SDS011;48172;53.374;10.722;2022-12-18T16:06:48;6.30;;;5.28;;
62179;SDS011;48172;53.374;10.722;2022-12-18T16:09:36;7.03;;;5.25;;
62179;SDS011;48172;53.374;10.722;2022-12-18T16:12:02;6.25;;;5.30;;
62179;SDS011;48172;53.374;10.722;2022-12-18T16:14:29;7.35;;;5.07;;
62179;SDS011;48172;53.374;10.722;2022-12-18T16:17:01;7.93;;;5.63;;
62179;SDS011;48172;53.374;10.722;2022-12-18T16:19:31;6.75;;;5.53;;
62179;SDS011;48172;53.374;10.722;2022-12-18T16:21:58;5.40;;;4.90;;
62179;SDS011;48172;53.374;10.722;2022-12-18T16:24:26;6.63;;;5.28;;
62179;SDS011;48172;53.374;10.722;2022-12-18T16:26:56;5.75;;;5.13;;
62179;SDS011;48172;53.374;10.722;2022-12-18T16:29:25;5.60;;;5.00;;
62179;SDS011;48172;53.374;10.722;2022-12-18T16:31:54;5.97;;;4.95;;
62179;SDS011;48172;53.374;10.722;2022-12-18T16:34:22;5.93;;;4.72;;
62179;SDS011;48172;53.374;10.722;2022-12-18T16:36:52;5.93;;;4.57;;
62179;SDS011;48172;53.374;10.722;2022-12-18T16:39:30;5.60;;;4.80;;
62179;SDS011;48172;53.374;10.722;2022-12-18T16:41:57;6.30;;;4.82;;
62179;SDS011;48172;53.374;10.722;2022-12-18T16:44:31;5.15;;;4.35;;
62179;SDS011;48172;53.374;10.722;2022-12-18T16:46:58;5.35;;;4.75;;
62179;SDS011;48172;53.374;10.722;2022-12-18T16:49:28;5.22;;;4.25;;
62179;SDS011;48172;53.374;10.722;2022-12-18T16:51:55;5.82;;;5.22;;
62179;SDS011;48172;53.374;10.722;2022-12-18T16:54:21;6.25;;;4.35;;
62179;SDS011;48172;53.374;10.722;2022-12-18T16:56:48;5.63;;;4.70;;
62179;SDS011;48172;53.374;10.722;2022-12-18T16:59:17;4.90;;;4.40;;
62179;SDS011;48172;53.374;10.722;2022-12-18T17:01:43;5.68;;;4.50;;
62179;SDS011;48172;53.374;10.722;2022-12-18T17:04:10;5.80;;;4.82;;
62179;SDS011;48172;53.374;10.722;2022-12-18T17:06:40;5.05;;;4.55;;
62179;SDS011;48172;53.374;10.722;2022-12-18T17:09:13;5.55;;;4.35;;
62179;SDS011;48172;53.374;10.722;2022-12-18T17:11:41;5.40;;;4.47;;
62179;SDS011;48172;53.374;10.722;2022-12-18T17:14:09;5.05;;;4.50;;
62179;SDS011;48172;53.374;10.722;2022-12-18T17:16:41;5.00;;;4.35;;
62179;SDS011;48172;53.374;10.722;2022-12-18T17:19:08;5.05;;;4.05;;